Ponce Inlet, Florida
Current Conditions -  °F | °C
As of 10:47 AM on Monday 24 Nov 2014 (Local Time) from KEVB Reporting Station
Scattered Clouds Scattered Clouds  
Wind Chill: 82°   Ceiling: Unl
Heat Index: 87°   Visibility: 10mi
Dew Point: 72°   Wind: 13mph
Humidity: 70%   Direction: 200°SSW
Pressure: 29.98"   Gusts: 23mph
Location:  29.1091°N, 80.9979°W
Report Text: KEVB 241547Z 20011G20KT 10SM SCT020 28/22 A2998
Loading
Personal Weather Stations






























Interactive Weather Map New forecast layout! Learn more

10-Day Weather Forecast

Advertisements
Track Severe Weather on mobile